Time,TemperatureF,DewpointF,PressureIn,WindDirection,WindDirectionDegrees,WindSpeedMPH,WindSpeedGustMPH,Humidity,HourlyPrecipIn,Conditions,Clouds,dailyrainin,SoftwareType,DateUTC
2013-03-27 00:14:00,32.7,27.0,30.27,West,262,0.0,0.0,79,0.00,,,0.00,weatherlink.com 1.10,2013-03-27 05:14:00,
2013-03-27 00:29:00,32.5,27.0,30.28,West,262,0.0,0.0,79,0.00,,,0.00,weatherlink.com 1.10,2013-03-27 05:29:00,
2013-03-27 00:44:00,32.6,27.0,30.28,WSW,249,0.0,1.0,80,0.00,,,0.00,weatherlink.com 1.10,2013-03-27 05:44:00,
2013-03-27 00:59:00,32.8,28.0,30.28,West,264,0.0,1.0,81,0.00,,,0.00,weatherlink.com 1.10,2013-03-27 05:59:00,
2013-03-27 01:14:00,32.3,27.0,30.29,West,264,1.0,1.0,82,0.00,,,0.00,weatherlink.com 1.10,2013-03-27 06:14:00,
2013-03-27 01:29:00,32.6,28.0,30.29,West,277,0.0,2.0,83,0.00,,,0.00,weatherlink.com 1.10,2013-03-27 06:29:00,
2013-03-27 01:44:00,32.6,28.0,30.29,West,271,0.0,1.0,82,0.00,,,0.00,weatherlink.com 1.10,2013-03-27 06:44:00,
2013-03-27 01:59:00,32.5,28.0,30.29,WSW,252,0.0,1.0,82,0.00,,,0.00,weatherlink.com 1.10,2013-03-27 06:59:00,
2013-03-27 02:14:00,32.7,28.0,30.29,WNW,302,0.0,2.0,82,0.00,,,0.00,weatherlink.com 1.10,2013-03-27 07:14:00,
2013-03-27 02:29:00,32.7,28.0,30.29,West,266,0.0,1.0,83,0.00,,,0.00,weatherlink.com 1.10,2013-03-27 07:29:00,
2013-03-27 02:44:00,32.3,28.0,30.28,West,260,0.0,1.0,83,0.00,,,0.00,weatherlink.com 1.10,2013-03-27 07:44:00,
2013-03-27 02:59:00,32.2,28.0,30.28,WSW,248,0.0,1.0,83,0.00,,,0.00,weatherlink.com 1.10,2013-03-27 07:59:00,
2013-03-27 03:14:00,32.1,28.0,30.28,West,260,0.0,2.0,84,0.00,,,0.00,weatherlink.com 1.10,2013-03-27 08:14:00,
2013-03-27 03:29:00,32.2,28.0,30.28,West,269,0.0,1.0,84,0.00,,,0.00,weatherlink.com 1.10,2013-03-27 08:29:00,
2013-03-27 03:44:00,31.9,28.0,30.27,West,269,0.0,0.0,84,0.00,,,0.00,weatherlink.com 1.10,2013-03-27 08:44:00,
2013-03-27 03:59:00,31.4,27.0,30.28,West,269,0.0,0.0,85,0.00,,,0.00,weatherlink.com 1.10,2013-03-27 08:59:00,
2013-03-27 04:14:00,31.0,27.0,30.27,WSW,256,0.0,1.0,86,0.00,,,0.00,weatherlink.com 1.10,2013-03-27 09:14:00,
2013-03-27 04:29:00,30.7,27.0,30.28,SW,228,0.0,1.0,87,0.00,,,0.00,weatherlink.com 1.10,2013-03-27 09:29:00,
2013-03-27 04:44:00,31.0,27.0,30.28,SW,228,0.0,0.0,86,0.00,,,0.00,weatherlink.com 1.10,2013-03-27 09:44:00,
2013-03-27 04:59:00,31.0,27.0,30.28,SW,228,0.0,0.0,86,0.00,,,0.00,weatherlink.com 1.10,2013-03-27 09:59:00,
2013-03-27 05:14:00,30.5,27.0,30.28,SW,228,0.0,1.0,88,0.00,,,0.00,weatherlink.com 1.10,2013-03-27 10:14:00,
2013-03-27 05:29:00,30.1,27.0,30.28,SW,228,0.0,0.0,88,0.00,,,0.00,weatherlink.com 1.10,2013-03-27 10:29:00,
2013-03-27 05:44:00,30.3,27.0,30.28,SW,228,0.0,1.0,88,0.00,,,0.00,weatherlink.com 1.10,2013-03-27 10:44:00,
2013-03-27 05:59:00,30.0,27.0,30.29,SW,228,0.0,0.0,88,0.00,,,0.00,weatherlink.com 1.10,2013-03-27 10:59:00,
2013-03-27 06:14:00,29.9,27.0,30.29,SW,228,0.0,0.0,88,0.00,,,0.00,weatherlink.com 1.10,2013-03-27 11:14:00,
2013-03-27 06:29:00,29.2,27.0,30.30,SW,228,0.0,0.0,90,0.00,,,0.00,weatherlink.com 1.10,2013-03-27 11:29:00,
2013-03-27 06:44:00,28.7,26.0,30.30,SW,228,0.0,0.0,91,0.00,,,0.00,weatherlink.com 1.10,2013-03-27 11:44:00,
2013-03-27 06:59:00,28.7,26.0,30.30,SW,228,0.0,0.0,91,0.00,,,0.00,weatherlink.com 1.10,2013-03-27 11:59:00,
2013-03-27 07:14:00,28.7,26.0,30.30,SW,228,0.0,1.0,91,0.00,,,0.00,weatherlink.com 1.10,2013-03-27 12:14:00,
2013-03-27 07:29:00,28.8,27.0,30.31,SW,228,0.0,0.0,91,0.00,,,0.00,weatherlink.com 1.10,2013-03-27 12:29:00,
2013-03-27 07:44:00,29.2,27.0,30.31,SW,228,0.0,1.0,90,0.00,,,0.00,weatherlink.com 1.10,2013-03-27 12:44:00,
2013-03-27 07:59:00,29.6,27.0,30.32,SW,228,0.0,0.0,90,0.00,,,0.00,weatherlink.com 1.10,2013-03-27 12:59:00,
2013-03-27 08:14:00,30.4,28.0,30.32,SW,228,0.0,1.0,89,0.00,,,0.00,weatherlink.com 1.10,2013-03-27 13:14:00,
2013-03-27 08:29:00,31.5,28.0,30.32,West,260,0.0,0.0,87,0.00,,,0.00,weatherlink.com 1.10,2013-03-27 13:29:00,
2013-03-27 08:44:00,32.0,27.0,30.32,WNW,286,0.0,3.0,82,0.00,,,0.00,weatherlink.com 1.10,2013-03-27 13:44:00,
2013-03-27 09:14:00,32.8,27.0,30.32,West,269,0.0,4.0,80,0.00,,,0.00,weatherlink.com 1.10,2013-03-27 14:14:00,
2013-03-27 09:29:00,33.7,28.0,30.32,West,259,2.0,3.0,79,0.00,,,0.00,weatherlink.com 1.10,2013-03-27 14:29:00,
2013-03-27 09:44:00,34.1,28.0,30.32,NW,323,1.0,3.0,78,0.00,,,0.00,weatherlink.com 1.10,2013-03-27 14:44:00,
2013-03-27 10:00:00,34.8,29.0,30.33,NW,315,2.0,3.0,78,0.00,,,0.00,weatherlink.com 1.10,2013-03-27 15:00:00,
2013-03-27 10:15:00,34.9,28.0,30.33,WNW,285,0.0,4.0,76,0.00,,,0.00,weatherlink.com 1.10,2013-03-27 15:15:00,
2013-03-27 10:30:00,35.7,28.0,30.33,NW,321,4.0,4.0,74,0.00,,,0.00,weatherlink.com 1.10,2013-03-27 15:30:00,
2013-03-27 10:45:00,37.4,28.0,30.33,NW,307,2.0,4.0,70,0.00,,,0.00,weatherlink.com 1.10,2013-03-27 15:45:00,
2013-03-27 11:00:00,38.6,28.0,30.33,West,280,3.0,3.0,67,0.00,,,0.00,weatherlink.com 1.10,2013-03-27 16:00:00,
2013-03-27 11:15:00,39.5,26.0,30.33,NNE,16,0.0,5.0,59,0.00,,,0.00,weatherlink.com 1.10,2013-03-27 16:15:00,
2013-03-27 11:30:00,40.8,23.0,30.33,ENE,75,0.0,5.0,50,0.00,,,0.00,weatherlink.com 1.10,2013-03-27 16:30:00,
2013-03-27 11:45:00,41.8,24.0,30.33,NNW,342,1.0,5.0,50,0.00,,,0.00,weatherlink.com 1.10,2013-03-27 16:45:00,
2013-03-27 12:00:00,41.5,23.0,30.32,NNW,348,5.0,9.0,48,0.00,,,0.00,weatherlink.com 1.10,2013-03-27 17:00:00,
2013-03-27 12:15:00,41.7,23.0,30.32,WNW,301,2.0,7.0,47,0.00,,,0.00,weatherlink.com 1.10,2013-03-27 17:15:00,
2013-03-27 12:30:00,41.3,23.0,30.32,WSW,238,3.0,7.0,49,0.00,,,0.00,weatherlink.com 1.10,2013-03-27 17:30:00,
2013-03-27 12:45:00,42.1,23.0,30.32,SSE,154,0.0,8.0,47,0.00,,,0.00,weatherlink.com 1.10,2013-03-27 17:45:00,
2013-03-27 13:00:00,41.7,23.0,30.32,West,278,4.0,9.0,48,0.00,,,0.00,weatherlink.com 1.10,2013-03-27 18:00:00,
2013-03-27 13:15:00,42.4,22.0,30.32,North,353,2.0,6.0,45,0.00,,,0.00,weatherlink.com 1.10,2013-03-27 18:15:00,
2013-03-27 13:30:00,43.5,24.0,30.31,WSW,255,4.0,6.0,46,0.00,,,0.00,weatherlink.com 1.10,2013-03-27 18:30:00,
2013-03-27 13:45:00,42.5,23.0,30.31,NE,49,4.0,9.0,46,0.00,,,0.00,weatherlink.com 1.10,2013-03-27 18:45:00,
2013-03-27 14:00:00,43.8,25.0,30.30,WNW,288,6.0,10.0,47,0.00,,,0.00,weatherlink.com 1.10,2013-03-27 19:00:00,
2013-03-27 14:15:00,43.0,23.0,30.30,West,280,3.0,11.0,45,0.00,,,0.00,weatherlink.com 1.10,2013-03-27 19:15:00,
2013-03-27 14:30:00,43.1,24.0,30.30,NW,316,4.0,12.0,48,0.00,,,0.00,weatherlink.com 1.10,2013-03-27 19:30:00,
2013-03-27 14:45:00,42.7,23.0,30.30,NW,314,1.0,4.0,46,0.00,,,0.00,weatherlink.com 1.10,2013-03-27 19:45:00,
2013-03-27 15:00:00,43.0,25.0,30.29,WNW,291,8.0,8.0,50,0.00,,,0.00,weatherlink.com 1.10,2013-03-27 20:00:00,
2013-03-27 15:15:00,43.2,25.0,30.29,SSW,197,1.0,8.0,48,0.00,,,0.00,weatherlink.com 1.10,2013-03-27 20:15:00,
2013-03-27 15:30:00,44.8,25.0,30.28,NNE,22,3.0,6.0,46,0.00,,,0.00,weatherlink.com 1.10,2013-03-27 20:30:00,
2013-03-27 15:45:00,44.3,25.0,30.28,NNW,331,4.0,7.0,47,0.00,,,0.00,weatherlink.com 1.10,2013-03-27 20:45:00,
2013-03-27 16:00:00,43.6,24.0,30.28,NE,51,2.0,5.0,47,0.00,,,0.00,weatherlink.com 1.10,2013-03-27 21:00:00,
2013-03-27 16:15:00,43.9,25.0,30.27,WNW,295,0.0,6.0,47,0.00,,,0.00,weatherlink.com 1.10,2013-03-27 21:15:00,
2013-03-27 16:30:00,44.3,26.0,30.27,WSW,257,1.0,8.0,48,0.00,,,0.00,weatherlink.com 1.10,2013-03-27 21:30:00,
2013-03-27 16:45:00,44.2,25.0,30.27,WNW,286,3.0,11.0,47,0.00,,,0.00,weatherlink.com 1.10,2013-03-27 21:45:00,
2013-03-27 17:00:00,44.3,26.0,30.27,NW,304,6.0,8.0,49,0.00,,,0.00,weatherlink.com 1.10,2013-03-27 22:00:00,
2013-03-27 17:15:00,44.4,26.0,30.27,NNE,12,2.0,8.0,48,0.00,,,0.00,weatherlink.com 1.10,2013-03-27 22:15:00,
2013-03-27 17:30:00,44.3,25.0,30.27,North,4,3.0,4.0,47,0.00,,,0.00,weatherlink.com 1.10,2013-03-27 22:30:00,
2013-03-27 17:45:00,43.7,25.0,30.27,NNE,25,4.0,7.0,49,0.00,,,0.00,weatherlink.com 1.10,2013-03-27 22:45:00,
2013-03-27 18:00:00,43.5,25.0,30.27,NNW,347,4.0,5.0,48,0.00,,,0.00,weatherlink.com 1.10,2013-03-27 23:00:00,
2013-03-27 18:15:00,43.1,26.0,30.27,NNW,342,2.0,8.0,51,0.00,,,0.00,weatherlink.com 1.10,2013-03-27 23:15:00,
2013-03-27 18:30:00,42.9,25.0,30.27,NW,318,2.0,5.0,50,0.00,,,0.00,weatherlink.com 1.10,2013-03-27 23:30:00,
2013-03-27 18:45:00,42.5,25.0,30.27,NNE,24,2.0,5.0,51,0.00,,,0.00,weatherlink.com 1.10,2013-03-27 23:45:00,
2013-03-27 19:00:00,41.8,25.0,30.27,North,353,2.0,4.0,52,0.00,,,0.00,weatherlink.com 1.10,2013-03-28 00:00:00,
2013-03-27 19:15:00,40.7,25.0,30.27,North,354,1.0,1.0,55,0.00,,,0.00,weatherlink.com 1.10,2013-03-28 00:15:00,
2013-03-27 19:30:00,39.6,25.0,30.27,North,5,0.0,1.0,57,0.00,,,0.00,weatherlink.com 1.10,2013-03-28 00:30:00,
2013-03-27 19:45:00,38.5,26.0,30.28,North,5,0.0,1.0,60,0.00,,,0.00,weatherlink.com 1.10,2013-03-28 00:45:00,
2013-03-27 20:00:00,36.8,25.0,30.28,North,5,0.0,1.0,62,0.00,,,0.00,weatherlink.com 1.10,2013-03-28 01:00:00,
2013-03-27 20:15:00,34.8,25.0,30.29,ENE,75,1.0,2.0,68,0.00,,,0.00,weatherlink.com 1.10,2013-03-28 01:15:00,
2013-03-27 20:30:00,34.9,26.0,30.29,East,101,0.0,0.0,69,0.00,,,0.00,weatherlink.com 1.10,2013-03-28 01:30:00,
2013-03-27 20:45:00,33.2,25.0,30.29,NNE,19,0.0,1.0,73,0.00,,,0.00,weatherlink.com 1.10,2013-03-28 01:45:00,
2013-03-27 21:00:00,32.5,26.0,30.30,NNE,18,0.0,1.0,76,0.00,,,0.00,weatherlink.com 1.10,2013-03-28 02:00:00,
2013-03-27 21:15:00,31.6,25.0,30.30,NNE,18,0.0,0.0,77,0.00,,,0.00,weatherlink.com 1.10,2013-03-28 02:15:00,
2013-03-27 21:30:00,30.8,25.0,30.30,NNE,18,0.0,0.0,79,0.00,,,0.00,weatherlink.com 1.10,2013-03-28 02:30:00,
2013-03-27 21:45:00,30.3,25.0,30.31,ENE,66,0.0,0.0,81,0.00,,,0.00,weatherlink.com 1.10,2013-03-28 02:45:00,
2013-03-27 22:00:00,29.5,25.0,30.31,NNE,29,1.0,1.0,82,0.00,,,0.00,weatherlink.com 1.10,2013-03-28 03:00:00,
2013-03-27 22:15:00,29.2,25.0,30.31,NNE,29,0.0,1.0,83,0.00,,,0.00,weatherlink.com 1.10,2013-03-28 03:15:00,
2013-03-27 22:30:00,29.1,25.0,30.31,East,84,0.0,1.0,84,0.00,,,0.00,weatherlink.com 1.10,2013-03-28 03:30:00,
2013-03-27 22:46:00,29.0,25.0,30.31,ENE,67,1.0,1.0,85,0.00,,,0.00,weatherlink.com 1.10,2013-03-28 03:46:00,
2013-03-27 23:01:00,28.8,25.0,30.31,ENE,66,0.0,0.0,85,0.00,,,0.00,weatherlink.com 1.10,2013-03-28 04:01:00,
2013-03-27 23:16:00,28.3,25.0,30.31,ENE,66,0.0,1.0,87,0.00,,,0.00,weatherlink.com 1.10,2013-03-28 04:16:00,
2013-03-27 23:31:00,27.9,25.0,30.31,ENE,67,0.0,0.0,88,0.00,,,0.00,weatherlink.com 1.10,2013-03-28 04:31:00,
2013-03-27 23:46:00,27.3,24.0,30.31,ENE,67,0.0,0.0,88,0.00,,,0.00,weatherlink.com 1.10,2013-03-28 04:46:00,